sensor_id;sensor_type;location;lat;lon;timestamp;pressure;altitude;pressure_sealevel;temperature;humidity
37291;BME280;23175;-33.706;151.094;2023-12-14T00:00:25;98843.99;;;25.14;40.72
37291;BME280;23175;-33.706;151.094;2023-12-14T00:03:00;98839.65;;;24.58;41.09
37291;BME280;23175;-33.706;151.094;2023-12-14T00:05:35;98839.68;;;25.44;40.47
37291;BME280;23175;-33.706;151.094;2023-12-14T00:08:05;98835.37;;;25.08;40.74
37291;BME280;23175;-33.706;151.094;2023-12-14T00:10:35;98836.44;;;25.07;40.88
37291;BME280;23175;-33.706;151.094;2023-12-14T00:13:05;98842.63;;;25.71;38.86
37291;BME280;23175;-33.706;151.094;2023-12-14T00:15:35;98829.95;;;25.46;39.70
37291;BME280;23175;-33.706;151.094;2023-12-14T00:18:05;98831.48;;;25.58;39.76
37291;BME280;23175;-33.706;151.094;2023-12-14T00:20:35;98827.89;;;26.04;38.91
37291;BME280;23175;-33.706;151.094;2023-12-14T00:23:05;98820.31;;;25.92;38.32
37291;BME280;23175;-33.706;151.094;2023-12-14T00:25:36;98824.05;;;26.97;36.56
37291;BME280;23175;-33.706;151.094;2023-12-14T00:28:06;98828.28;;;26.51;37.31
37291;BME280;23175;-33.706;151.094;2023-12-14T00:30:36;98827.87;;;25.43;37.93
37291;BME280;23175;-33.706;151.094;2023-12-14T00:33:06;98822.55;;;26.32;37.07
37291;BME280;23175;-33.706;151.094;2023-12-14T00:35:36;98816.08;;;27.88;34.75
37291;BME280;23175;-33.706;151.094;2023-12-14T00:38:06;98817.92;;;28.76;34.48
37291;BME280;23175;-33.706;151.094;2023-12-14T00:40:36;98813.98;;;25.60;37.55
37291;BME280;23175;-33.706;151.094;2023-12-14T00:43:06;98808.70;;;27.46;34.96
37291;BME280;23175;-33.706;151.094;2023-12-14T00:45:41;98814.78;;;27.47;35.53
37291;BME280;23175;-33.706;151.094;2023-12-14T00:48:11;98801.88;;;25.62;36.93
37291;BME280;23175;-33.706;151.094;2023-12-14T00:50:42;98795.66;;;26.96;35.26
37291;BME280;23175;-33.706;151.094;2023-12-14T00:53:12;98792.25;;;27.97;34.80
37291;BME280;23175;-33.706;151.094;2023-12-14T00:55:42;98773.87;;;27.23;36.19
37291;BME280;23175;-33.706;151.094;2023-12-14T00:58:13;98781.63;;;26.40;35.61
37291;BME280;23175;-33.706;151.094;2023-12-14T01:00:43;98765.11;;;28.08;33.82
37291;BME280;23175;-33.706;151.094;2023-12-14T01:03:19;98759.63;;;27.24;34.90
37291;BME280;23175;-33.706;151.094;2023-12-14T01:05:49;98758.60;;;26.91;34.32
37291;BME280;23175;-33.706;151.094;2023-12-14T01:08:19;98751.36;;;27.63;32.53
37291;BME280;23175;-33.706;151.094;2023-12-14T01:10:49;98746.84;;;28.22;31.81
37291;BME280;23175;-33.706;151.094;2023-12-14T01:13:19;98744.99;;;27.70;32.57
37291;BME280;23175;-33.706;151.094;2023-12-14T01:15:49;98743.34;;;28.18;31.84
37291;BME280;23175;-33.706;151.094;2023-12-14T01:18:24;98740.96;;;28.08;31.13
37291;BME280;23175;-33.706;151.094;2023-12-14T01:20:54;98726.95;;;28.08;30.84
37291;BME280;23175;-33.706;151.094;2023-12-14T01:23:24;98735.19;;;28.28;31.07
37291;BME280;23175;-33.706;151.094;2023-12-14T01:25:54;98725.05;;;27.24;31.94
37291;BME280;23175;-33.706;151.094;2023-12-14T01:28:29;98714.15;;;28.51;31.23
37291;BME280;23175;-33.706;151.094;2023-12-14T01:30:59;98712.99;;;29.06;29.62
37291;BME280;23175;-33.706;151.094;2023-12-14T01:33:29;98711.77;;;28.46;29.64
37291;BME280;23175;-33.706;151.094;2023-12-14T01:35:59;98710.68;;;28.27;30.04
37291;BME280;23175;-33.706;151.094;2023-12-14T01:38:29;98725.95;;;28.54;29.85
37291;BME280;23175;-33.706;151.094;2023-12-14T01:40:59;98704.07;;;28.18;28.68
37291;BME280;23175;-33.706;151.094;2023-12-14T01:43:29;98702.84;;;28.13;30.21
37291;BME280;23175;-33.706;151.094;2023-12-14T01:45:59;98703.53;;;29.92;28.04
37291;BME280;23175;-33.706;151.094;2023-12-14T01:48:29;98691.63;;;28.78;27.69
37291;BME280;23175;-33.706;151.094;2023-12-14T01:51:04;98685.31;;;29.31;26.54
37291;BME280;23175;-33.706;151.094;2023-12-14T01:53:34;98689.85;;;28.80;29.35
37291;BME280;23175;-33.706;151.094;2023-12-14T01:56:05;98683.60;;;28.35;28.33
37291;BME280;23175;-33.706;151.094;2023-12-14T01:58:35;98666.88;;;29.37;27.23
37291;BME280;23175;-33.706;151.094;2023-12-14T02:01:22;98671.62;;;28.75;26.97
37291;BME280;23175;-33.706;151.094;2023-12-14T02:03:54;98671.57;;;30.13;26.15
37291;BME280;23175;-33.706;151.094;2023-12-14T02:06:25;98654.99;;;28.78;25.91
37291;BME280;23175;-33.706;151.094;2023-12-14T02:08:55;98667.20;;;29.81;25.99
37291;BME280;23175;-33.706;151.094;2023-12-14T02:11:25;98674.18;;;28.44;26.68
37291;BME280;23175;-33.706;151.094;2023-12-14T02:13:54;98661.40;;;28.55;26.37
37291;BME280;23175;-33.706;151.094;2023-12-14T02:16:25;98638.64;;;28.61;26.56
37291;BME280;23175;-33.706;151.094;2023-12-14T02:18:55;98644.72;;;28.42;26.10
37291;BME280;23175;-33.706;151.094;2023-12-14T02:21:26;98648.55;;;28.63;25.60
37291;BME280;23175;-33.706;151.094;2023-12-14T02:23:56;98650.42;;;28.10;26.30
37291;BME280;23175;-33.706;151.094;2023-12-14T02:26:25;98644.69;;;27.69;26.48
37291;BME280;23175;-33.706;151.094;2023-12-14T02:28:55;98652.85;;;27.89;26.93
37291;BME280;23175;-33.706;151.094;2023-12-14T02:31:25;98653.07;;;28.39;26.90
37291;BME280;23175;-33.706;151.094;2023-12-14T02:33:55;98646.92;;;30.38;25.61
37291;BME280;23175;-33.706;151.094;2023-12-14T02:36:25;98636.18;;;30.54;25.15
37291;BME280;23175;-33.706;151.094;2023-12-14T02:39:00;98629.24;;;29.10;26.25
37291;BME280;23175;-33.706;151.094;2023-12-14T02:41:30;98621.20;;;29.48;25.67
37291;BME280;23175;-33.706;151.094;2023-12-14T02:44:00;98601.99;;;29.87;24.96
37291;BME280;23175;-33.706;151.094;2023-12-14T02:46:30;98606.63;;;30.89;24.74
37291;BME280;23175;-33.706;151.094;2023-12-14T02:49:00;98598.07;;;29.89;23.54
37291;BME280;23175;-33.706;151.094;2023-12-14T02:51:30;98598.18;;;30.17;23.56
37291;BME280;23175;-33.706;151.094;2023-12-14T02:53:59;98622.75;;;28.82;24.07
37291;BME280;23175;-33.706;151.094;2023-12-14T02:56:29;98590.49;;;29.71;23.18
37291;BME280;23175;-33.706;151.094;2023-12-14T02:59:00;98590.18;;;29.96;22.05
37291;BME280;23175;-33.706;151.094;2023-12-14T03:01:29;98568.77;;;30.19;20.81
37291;BME280;23175;-33.706;151.094;2023-12-14T03:03:59;98600.75;;;30.72;21.30
37291;BME280;23175;-33.706;151.094;2023-12-14T03:06:29;98578.91;;;30.24;20.25
37291;BME280;23175;-33.706;151.094;2023-12-14T03:08:59;98580.36;;;30.68;17.78
37291;BME280;23175;-33.706;151.094;2023-12-14T03:11:29;98565.92;;;29.86;16.85
37291;BME280;23175;-33.706;151.094;2023-12-14T03:13:59;98566.51;;;31.05;17.42
37291;BME280;23175;-33.706;151.094;2023-12-14T03:16:29;98568.29;;;31.00;16.40
37291;BME280;23175;-33.706;151.094;2023-12-14T03:18:59;98553.20;;;30.72;16.63
37291;BME280;23175;-33.706;151.094;2023-12-14T03:21:29;98545.36;;;30.71;16.91
37291;BME280;23175;-33.706;151.094;2023-12-14T03:23:59;98569.29;;;30.35;17.50
37291;BME280;23175;-33.706;151.094;2023-12-14T03:26:29;98560.73;;;30.66;17.33
37291;BME280;23175;-33.706;151.094;2023-12-14T03:28:59;98546.13;;;29.97;17.49
37291;BME280;23175;-33.706;151.094;2023-12-14T03:31:29;98556.16;;;30.30;17.85
37291;BME280;23175;-33.706;151.094;2023-12-14T03:33:58;98539.71;;;30.66;17.27
37291;BME280;23175;-33.706;151.094;2023-12-14T03:36:28;98541.01;;;30.74;17.71
37291;BME280;23175;-33.706;151.094;2023-12-14T03:38:58;98544.73;;;30.32;17.78
37291;BME280;23175;-33.706;151.094;2023-12-14T03:41:28;98534.70;;;31.62;17.01
37291;BME280;23175;-33.706;151.094;2023-12-14T03:43:58;98536.88;;;29.90;17.77
37291;BME280;23175;-33.706;151.094;2023-12-14T03:46:29;98528.80;;;30.75;17.19
37291;BME280;23175;-33.706;151.094;2023-12-14T03:48:59;98530.32;;;30.57;17.53
37291;BME280;23175;-33.706;151.094;2023-12-14T03:51:29;98520.55;;;31.04;17.63
37291;BME280;23175;-33.706;151.094;2023-12-14T03:54:04;98531.38;;;32.11;17.06
37291;BME280;23175;-33.706;151.094;2023-12-14T03:56:34;98511.90;;;31.14;16.97
37291;BME280;23175;-33.706;151.094;2023-12-14T03:59:05;98524.76;;;31.81;16.17
37291;BME280;23175;-33.706;151.094;2023-12-14T04:01:35;98506.98;;;30.55;17.57
37291;BME280;23175;-33.706;151.094;2023-12-14T04:04:05;98505.40;;;30.67;17.11
37291;BME280;23175;-33.706;151.094;2023-12-14T04:06:40;98507.76;;;31.40;17.36
37291;BME280;23175;-33.706;151.094;2023-12-14T04:09:10;98509.98;;;31.92;17.28
37291;BME280;23175;-33.706;151.094;2023-12-14T04:11:40;98513.05;;;31.26;17.21
37291;BME280;23175;-33.706;151.094;2023-12-14T04:14:11;98505.47;;;31.72;17.22
37291;BME280;23175;-33.706;151.094;2023-12-14T04:16:41;98515.05;;;31.72;17.04
37291;BME280;23175;-33.706;151.094;2023-12-14T04:19:11;98510.54;;;30.04;18.04
37291;BME280;23175;-33.706;151.094;2023-12-14T04:21:42;98507.89;;;30.15;17.74
37291;BME280;23175;-33.706;151.094;2023-12-14T04:24:12;98500.25;;;31.14;17.66
37291;BME280;23175;-33.706;151.094;2023-12-14T04:26:42;98495.78;;;31.14;17.71
37291;BME280;23175;-33.706;151.094;2023-12-14T04:29:12;98488.94;;;30.26;18.21
37291;BME280;23175;-33.706;151.094;2023-12-14T04:31:42;98510.01;;;30.83;17.95
37291;BME280;23175;-33.706;151.094;2023-12-14T04:34:13;98494.99;;;30.12;18.22
37291;BME280;23175;-33.706;151.094;2023-12-14T04:36:48;98489.40;;;30.43;18.49
37291;BME280;23175;-33.706;151.094;2023-12-14T04:39:17;98492.95;;;29.73;19.19
37291;BME280;23175;-33.706;151.094;2023-12-14T04:41:47;98487.12;;;30.46;17.91
37291;BME280;23175;-33.706;151.094;2023-12-14T04:44:17;98470.40;;;30.27;19.22
37291;BME280;23175;-33.706;151.094;2023-12-14T04:46:48;98480.21;;;29.65;19.15
37291;BME280;23175;-33.706;151.094;2023-12-14T04:49:18;98467.89;;;29.95;18.58
37291;BME280;23175;-33.706;151.094;2023-12-14T04:51:49;98467.94;;;30.63;17.73
37291;BME280;23175;-33.706;151.094;2023-12-14T04:54:19;98477.96;;;31.22;18.12
37291;BME280;23175;-33.706;151.094;2023-12-14T04:56:49;98471.58;;;29.89;18.88
37291;BME280;23175;-33.706;151.094;2023-12-14T04:59:20;98475.76;;;30.80;18.63
37291;BME280;23175;-33.706;151.094;2023-12-14T05:01:50;98467.94;;;29.60;19.17
37291;BME280;23175;-33.706;151.094;2023-12-14T05:04:21;98465.72;;;31.03;18.69
37291;BME280;23175;-33.706;151.094;2023-12-14T05:06:51;98461.42;;;30.40;18.37
37291;BME280;23175;-33.706;151.094;2023-12-14T05:09:20;98465.01;;;28.66;19.67
37291;BME280;23175;-33.706;151.094;2023-12-14T05:11:50;98460.29;;;29.59;19.54
37291;BME280;23175;-33.706;151.094;2023-12-14T05:14:20;98475.05;;;31.37;18.45
37291;BME280;23175;-33.706;151.094;2023-12-14T05:16:50;98472.27;;;31.39;17.78
37291;BME280;23175;-33.706;151.094;2023-12-14T05:19:25;98451.93;;;30.49;17.92
37291;BME280;23175;-33.706;151.094;2023-12-14T05:21:55;98454.76;;;30.17;17.30
37291;BME280;23175;-33.706;151.094;2023-12-14T05:24:25;98451.34;;;30.09;17.56
37291;BME280;23175;-33.706;151.094;2023-12-14T05:26:55;98447.84;;;30.56;17.17
37291;BME280;23175;-33.706;151.094;2023-12-14T05:29:25;98449.69;;;30.77;16.88
37291;BME280;23175;-33.706;151.094;2023-12-14T05:32:00;98445.79;;;31.37;17.34
37291;BME280;23175;-33.706;151.094;2023-12-14T05:34:30;98443.01;;;31.67;17.10
37291;BME280;23175;-33.706;151.094;2023-12-14T05:37:00;98445.54;;;30.81;18.20
37291;BME280;23175;-33.706;151.094;2023-12-14T05:39:30;98442.84;;;31.58;16.22
37291;BME280;23175;-33.706;151.094;2023-12-14T05:42:00;98443.40;;;30.56;16.56
37291;BME280;23175;-33.706;151.094;2023-12-14T05:44:30;98432.85;;;30.65;16.65
37291;BME280;23175;-33.706;151.094;2023-12-14T05:47:00;98435.62;;;30.30;16.50
37291;BME280;23175;-33.706;151.094;2023-12-14T05:49:29;98420.74;;;30.58;16.53
37291;BME280;23175;-33.706;151.094;2023-12-14T05:52:01;98435.94;;;31.23;16.20
37291;BME280;23175;-33.706;151.094;2023-12-14T05:54:32;98430.52;;;32.70;15.16
37291;BME280;23175;-33.706;151.094;2023-12-14T05:57:02;98438.00;;;30.67;15.95
37291;BME280;23175;-33.706;151.094;2023-12-14T05:59:38;98427.22;;;31.03;16.10
37291;BME280;23175;-33.706;151.094;2023-12-14T06:02:08;98421.74;;;30.74;16.00
37291;BME280;23175;-33.706;151.094;2023-12-14T06:04:38;98424.50;;;30.48;16.59
37291;BME280;23175;-33.706;151.094;2023-12-14T06:07:09;98417.10;;;30.84;16.46
37291;BME280;23175;-33.706;151.094;2023-12-14T06:09:41;98405.78;;;29.93;16.87
37291;BME280;23175;-33.706;151.094;2023-12-14T06:12:11;98415.13;;;30.22;17.21
37291;BME280;23175;-33.706;151.094;2023-12-14T06:14:41;98403.56;;;29.74;17.83
37291;BME280;23175;-33.706;151.094;2023-12-14T06:17:12;98418.70;;;31.14;16.73
37291;BME280;23175;-33.706;151.094;2023-12-14T06:19:42;98413.03;;;29.98;17.55
37291;BME280;23175;-33.706;151.094;2023-12-14T06:22:12;98417.40;;;31.40;17.01
37291;BME280;23175;-33.706;151.094;2023-12-14T06:24:42;98421.77;;;30.52;17.34
37291;BME280;23175;-33.706;151.094;2023-12-14T06:27:12;98422.10;;;30.84;16.86
37291;BME280;23175;-33.706;151.094;2023-12-14T06:29:42;98432.05;;;30.79;17.42
37291;BME280;23175;-33.706;151.094;2023-12-14T06:32:12;98426.06;;;29.82;18.59
37291;BME280;23175;-33.706;151.094;2023-12-14T06:34:42;98426.14;;;30.98;17.68
37291;BME280;23175;-33.706;151.094;2023-12-14T06:37:11;98424.36;;;30.88;17.44
37291;BME280;23175;-33.706;151.094;2023-12-14T06:39:43;98421.99;;;30.83;18.09
37291;BME280;23175;-33.706;151.094;2023-12-14T06:42:13;98422.56;;;30.65;17.94
37291;BME280;23175;-33.706;151.094;2023-12-14T06:44:43;98421.82;;;31.07;17.45
37291;BME280;23175;-33.706;151.094;2023-12-14T06:47:12;98427.03;;;30.81;17.65
37291;BME280;23175;-33.706;151.094;2023-12-14T06:49:42;98429.29;;;28.91;19.58
37291;BME280;23175;-33.706;151.094;2023-12-14T06:52:12;98426.67;;;30.23;18.13
37291;BME280;23175;-33.706;151.094;2023-12-14T06:54:42;98432.40;;;31.07;18.08
37291;BME280;23175;-33.706;151.094;2023-12-14T06:57:12;98438.98;;;31.54;17.73
37291;BME280;23175;-33.706;151.094;2023-12-14T06:59:42;98432.85;;;29.42;19.67
37291;BME280;23175;-33.706;151.094;2023-12-14T07:02:12;98445.10;;;30.07;18.65
37291;BME280;23175;-33.706;151.094;2023-12-14T07:04:42;98438.16;;;29.50;18.45
37291;BME280;23175;-33.706;151.094;2023-12-14T07:07:14;98443.83;;;29.22;18.38
37291;BME280;23175;-33.706;151.094;2023-12-14T07:09:44;98446.00;;;30.14;17.92
37291;BME280;23175;-33.706;151.094;2023-12-14T07:12:14;98438.55;;;29.79;18.31
37291;BME280;23175;-33.706;151.094;2023-12-14T07:14:44;98449.15;;;30.38;17.82
37291;BME280;23175;-33.706;151.094;2023-12-14T07:17:14;98447.96;;;30.36;18.09
37291;BME280;23175;-33.706;151.094;2023-12-14T07:19:44;98455.71;;;30.13;18.70
37291;BME280;23175;-33.706;151.094;2023-12-14T07:22:14;98456.57;;;31.21;18.02
37291;BME280;23175;-33.706;151.094;2023-12-14T07:24:44;98461.34;;;29.92;19.17
37291;BME280;23175;-33.706;151.094;2023-12-14T07:27:14;98456.13;;;30.05;18.43
37291;BME280;23175;-33.706;151.094;2023-12-14T07:29:43;98460.42;;;29.80;18.48
37291;BME280;23175;-33.706;151.094;2023-12-14T07:32:14;98463.01;;;29.22;19.60
37291;BME280;23175;-33.706;151.094;2023-12-14T07:34:43;98465.83;;;29.59;19.41
37291;BME280;23175;-33.706;151.094;2023-12-14T07:37:13;98461.59;;;30.24;18.33
37291;BME280;23175;-33.706;151.094;2023-12-14T07:39:43;98465.00;;;30.51;18.30
37291;BME280;23175;-33.706;151.094;2023-12-14T07:42:13;98467.83;;;30.17;18.40
37291;BME280;23175;-33.706;151.094;2023-12-14T07:44:43;98469.38;;;30.26;18.68
37291;BME280;23175;-33.706;151.094;2023-12-14T07:47:13;98478.45;;;29.38;19.20
37291;BME280;23175;-33.706;151.094;2023-12-14T07:49:43;98479.93;;;30.45;18.74
37291;BME280;23175;-33.706;151.094;2023-12-14T07:52:13;98482.47;;;28.67;20.07
37291;BME280;23175;-33.706;151.094;2023-12-14T07:54:43;98485.69;;;29.08;19.64
37291;BME280;23175;-33.706;151.094;2023-12-14T07:57:13;98484.83;;;29.73;19.66
37291;BME280;23175;-33.706;151.094;2023-12-14T07:59:43;98486.50;;;29.24;19.70
37291;BME280;23175;-33.706;151.094;2023-12-14T08:02:13;98496.57;;;28.48;20.22
37291;BME280;23175;-33.706;151.094;2023-12-14T08:04:43;98500.25;;;28.03;20.40
37291;BME280;23175;-33.706;151.094;2023-12-14T08:07:13;98510.99;;;28.96;20.26
37291;BME280;23175;-33.706;151.094;2023-12-14T08:09:43;98516.14;;;28.24;21.06
37291;BME280;23175;-33.706;151.094;2023-12-14T08:12:13;98518.94;;;29.48;19.97
37291;BME280;23175;-33.706;151.094;2023-12-14T08:14:43;98527.98;;;31.32;19.07
37291;BME280;23175;-33.706;151.094;2023-12-14T08:17:12;98528.70;;;29.37;19.80
37291;BME280;23175;-33.706;151.094;2023-12-14T08:19:44;98538.68;;;31.06;19.63
37291;BME280;23175;-33.706;151.094;2023-12-14T08:22:14;98537.81;;;28.71;21.19
37291;BME280;23175;-33.706;151.094;2023-12-14T08:24:44;98541.45;;;30.97;19.54
37291;BME280;23175;-33.706;151.094;2023-12-14T08:27:14;98551.44;;;28.76;20.80
37291;BME280;23175;-33.706;151.094;2023-12-14T08:29:44;98551.75;;;31.30;19.39
37291;BME280;23175;-33.706;151.094;2023-12-14T08:32:14;98553.31;;;29.53;20.61
37291;BME280;23175;-33.706;151.094;2023-12-14T08:34:44;98558.68;;;30.08;19.86
37291;BME280;23175;-33.706;151.094;2023-12-14T08:37:14;98571.73;;;29.96;20.20
37291;BME280;23175;-33.706;151.094;2023-12-14T08:39:44;98581.88;;;28.93;21.13
37291;BME280;23175;-33.706;151.094;2023-12-14T08:42:14;98590.53;;;28.53;21.24
37291;BME280;23175;-33.706;151.094;2023-12-14T08:44:44;98591.28;;;29.64;20.72
37291;BME280;23175;-33.706;151.094;2023-12-14T08:47:14;98596.70;;;29.40;20.98
37291;BME280;23175;-33.706;151.094;2023-12-14T08:49:44;98602.50;;;30.27;20.82
37291;BME280;23175;-33.706;151.094;2023-12-14T08:52:14;98606.44;;;29.26;21.30
37291;BME280;23175;-33.706;151.094;2023-12-14T08:54:44;98608.62;;;27.90;22.36
37291;BME280;23175;-33.706;151.094;2023-12-14T08:57:14;98618.83;;;28.76;21.98
37291;BME280;23175;-33.706;151.094;2023-12-14T08:59:44;98623.59;;;29.65;21.26
37291;BME280;23175;-33.706;151.094;2023-12-14T09:02:14;98622.15;;;26.95;22.68
37291;BME280;23175;-33.706;151.094;2023-12-14T09:04:44;98626.91;;;29.27;20.87
37291;BME280;23175;-33.706;151.094;2023-12-14T09:07:14;98626.40;;;28.30;21.88
37291;BME280;23175;-33.706;151.094;2023-12-14T09:09:44;98624.38;;;28.03;22.20
37291;BME280;23175;-33.706;151.094;2023-12-14T09:12:14;98633.06;;;29.59;20.82
37291;BME280;23175;-33.706;151.094;2023-12-14T09:14:44;98635.52;;;28.86;20.95
37291;BME280;23175;-33.706;151.094;2023-12-14T09:17:14;98644.13;;;28.73;21.22
37291;BME280;23175;-33.706;151.094;2023-12-14T09:19:44;98646.96;;;30.13;20.58
37291;BME280;23175;-33.706;151.094;2023-12-14T09:22:14;98654.98;;;30.09;20.38
37291;BME280;23175;-33.706;151.094;2023-12-14T09:24:49;98661.10;;;30.57;20.02
37291;BME280;23175;-33.706;151.094;2023-12-14T09:27:19;98666.25;;;29.12;21.00
37291;BME280;23175;-33.706;151.094;2023-12-14T09:29:49;98673.55;;;27.41;21.57
37291;BME280;23175;-33.706;151.094;2023-12-14T09:32:19;98678.37;;;31.14;19.70
37291;BME280;23175;-33.706;151.094;2023-12-14T09:34:49;98683.50;;;29.99;20.10
37291;BME280;23175;-33.706;151.094;2023-12-14T09:37:19;98686.77;;;29.54;20.33
37291;BME280;23175;-33.706;151.094;2023-12-14T09:39:49;98691.16;;;29.03;20.58
37291;BME280;23175;-33.706;151.094;2023-12-14T09:42:20;98698.34;;;29.19;20.54
37291;BME280;23175;-33.706;151.094;2023-12-14T09:44:52;98704.77;;;29.60;20.26
37291;BME280;23175;-33.706;151.094;2023-12-14T09:47:22;98710.85;;;28.69;21.09
37291;BME280;23175;-33.706;151.094;2023-12-14T09:49:53;98716.21;;;27.86;21.35
37291;BME280;23175;-33.706;151.094;2023-12-14T09:52:23;98722.22;;;30.23;20.44
37291;BME280;23175;-33.706;151.094;2023-12-14T09:54:53;98726.02;;;27.16;22.39
37291;BME280;23175;-33.706;151.094;2023-12-14T09:57:23;98730.89;;;27.02;22.04
37291;BME280;23175;-33.706;151.094;2023-12-14T09:59:54;98733.72;;;29.94;20.44
37291;BME280;23175;-33.706;151.094;2023-12-14T10:02:27;98740.84;;;26.83;22.63
37291;BME280;23175;-33.706;151.094;2023-12-14T10:04:58;98745.02;;;30.80;19.85
37291;BME280;23175;-33.706;151.094;2023-12-14T10:07:27;98750.41;;;29.37;21.80
37291;BME280;23175;-33.706;151.094;2023-12-14T10:10:11;98759.50;;;30.37;20.65
37291;BME280;23175;-33.706;151.094;2023-12-14T10:12:53;98789.18;;;26.29;25.72
37291;BME280;23175;-33.706;151.094;2023-12-14T10:15:23;98803.21;;;26.92;30.54
37291;BME280;23175;-33.706;151.094;2023-12-14T10:17:54;98816.52;;;24.70;35.67
37291;BME280;23175;-33.706;151.094;2023-12-14T10:20:25;98836.02;;;23.65;39.06
37291;BME280;23175;-33.706;151.094;2023-12-14T10:22:55;98848.77;;;24.19;41.05
37291;BME280;23175;-33.706;151.094;2023-12-14T10:25:25;98868.55;;;24.07;41.89
37291;BME280;23175;-33.706;151.094;2023-12-14T10:27:55;98866.64;;;22.07;46.31
37291;BME280;23175;-33.706;151.094;2023-12-14T10:30:27;98879.26;;;21.81;47.39
37291;BME280;23175;-33.706;151.094;2023-12-14T10:32:58;98882.58;;;22.13;47.24
37291;BME280;23175;-33.706;151.094;2023-12-14T10:35:28;98888.64;;;22.29;46.90
37291;BME280;23175;-33.706;151.094;2023-12-14T10:38:01;98893.48;;;21.80;48.46
37291;BME280;23175;-33.706;151.094;2023-12-14T10:40:32;98906.97;;;21.00;50.34
37291;BME280;23175;-33.706;151.094;2023-12-14T10:43:04;98915.07;;;21.48;50.32
37291;BME280;23175;-33.706;151.094;2023-12-14T10:45:34;98920.92;;;24.50;45.31
37291;BME280;23175;-33.706;151.094;2023-12-14T10:48:06;98933.24;;;22.42;48.46
37291;BME280;23175;-33.706;151.094;2023-12-14T10:50:37;98938.88;;;24.16;46.18
37291;BME280;23175;-33.706;151.094;2023-12-14T10:53:08;98947.39;;;22.08;49.61
37291;BME280;23175;-33.706;151.094;2023-12-14T10:55:41;98962.80;;;20.41;53.91
37291;BME280;23175;-33.706;151.094;2023-12-14T10:58:13;98957.35;;;21.02;53.49
37291;BME280;23175;-33.706;151.094;2023-12-14T11:00:43;98960.05;;;22.51;50.58
37291;BME280;23175;-33.706;151.094;2023-12-14T11:03:15;98962.40;;;22.61;49.28
37291;BME280;23175;-33.706;151.094;2023-12-14T11:05:45;98977.88;;;20.11;54.79
37291;BME280;23175;-33.706;151.094;2023-12-14T11:08:15;98985.24;;;22.39;51.28
37291;BME280;23175;-33.706;151.094;2023-12-14T11:11:00;98985.24;;;22.09;51.74
37291;BME280;23175;-33.706;151.094;2023-12-14T11:13:32;99003.01;;;20.91;54.48
37291;BME280;23175;-33.706;151.094;2023-12-14T11:16:03;98997.40;;;22.99;49.85
37291;BME280;23175;-33.706;151.094;2023-12-14T11:18:33;99002.32;;;20.68;53.52
37291;BME280;23175;-33.706;151.094;2023-12-14T11:21:04;99007.35;;;20.35;53.51
37291;BME280;23175;-33.706;151.094;2023-12-14T11:23:37;99008.91;;;20.84;52.73
37291;BME280;23175;-33.706;151.094;2023-12-14T11:26:10;99017.09;;;19.69;54.92
37291;BME280;23175;-33.706;151.094;2023-12-14T11:28:41;99019.20;;;22.98;49.25
37291;BME280;23175;-33.706;151.094;2023-12-14T11:31:14;99025.17;;;21.50;53.09
37291;BME280;23175;-33.706;151.094;2023-12-14T11:33:44;99020.18;;;20.57;54.01
37291;BME280;23175;-33.706;151.094;2023-12-14T11:36:14;99027.99;;;19.18;56.70
37291;BME280;23175;-33.706;151.094;2023-12-14T11:38:44;99027.92;;;20.36;54.56
37291;BME280;23175;-33.706;151.094;2023-12-14T11:41:15;99031.21;;;20.31;55.18
37291;BME280;23175;-33.706;151.094;2023-12-14T11:43:45;99028.31;;;19.77;55.66
37291;BME280;23175;-33.706;151.094;2023-12-14T11:46:15;99034.22;;;19.04;57.33
37291;BME280;23175;-33.706;151.094;2023-12-14T11:48:46;99033.05;;;19.87;56.38
37291;BME280;23175;-33.706;151.094;2023-12-14T11:51:17;99032.63;;;20.74;55.48
37291;BME280;23175;-33.706;151.094;2023-12-14T11:53:49;99046.84;;;19.69;55.59
37291;BME280;23175;-33.706;151.094;2023-12-14T11:56:20;99050.65;;;19.55;57.58
37291;BME280;23175;-33.706;151.094;2023-12-14T11:58:50;99051.06;;;19.03;58.19
37291;BME280;23175;-33.706;151.094;2023-12-14T12:01:21;99057.47;;;18.88;59.01
37291;BME280;23175;-33.706;151.094;2023-12-14T12:03:51;99056.24;;;19.57;57.75
37291;BME280;23175;-33.706;151.094;2023-12-14T12:06:23;99057.26;;;20.21;56.10
37291;BME280;23175;-33.706;151.094;2023-12-14T12:08:54;99067.31;;;18.02;60.25
37291;BME280;23175;-33.706;151.094;2023-12-14T12:11:25;99065.72;;;19.97;57.11
37291;BME280;23175;-33.706;151.094;2023-12-14T12:13:57;99069.23;;;20.13;56.53
37291;BME280;23175;-33.706;151.094;2023-12-14T12:16:27;99067.81;;;19.74;57.08
37291;BME280;23175;-33.706;151.094;2023-12-14T12:18:57;99071.06;;;20.32;55.92
37291;BME280;23175;-33.706;151.094;2023-12-14T12:21:27;99075.94;;;19.31;57.15
37291;BME280;23175;-33.706;151.094;2023-12-14T12:23:57;99074.52;;;18.92;57.86
37291;BME280;23175;-33.706;151.094;2023-12-14T12:26:27;99083.40;;;18.72;57.32
37291;BME280;23175;-33.706;151.094;2023-12-14T12:28:57;99086.92;;;19.39;56.81
37291;BME280;23175;-33.706;151.094;2023-12-14T12:31:27;99084.06;;;18.24;59.04
37291;BME280;23175;-33.706;151.094;2023-12-14T12:33:58;99086.23;;;20.35;54.96
37291;BME280;23175;-33.706;151.094;2023-12-14T12:36:27;99084.03;;;19.90;55.38
37291;BME280;23175;-33.706;151.094;2023-12-14T12:38:57;99081.80;;;18.89;57.39
37291;BME280;23175;-33.706;151.094;2023-12-14T12:41:27;99083.25;;;21.25;52.14
37291;BME280;23175;-33.706;151.094;2023-12-14T12:43:57;99080.40;;;20.44;53.29
37291;BME280;23175;-33.706;151.094;2023-12-14T12:46:27;99079.16;;;21.64;51.59